Shirley, IL (61772)

8:34 AM CST on March 05, 2015 (GMT -0600)
Funk Farms Trust | Change Station
CLOSE
Current Station
Personal Weather Station
Location: Shirley, IL
Elevation: 709 ft
Nearby Weather Stations

Elev 709 ft 40.38 °N, 89.06 °W | Updated 8 minutes ago

Partly Cloudy
Partly Cloudy
9.7 °F
Feels Like -2 °F
N
7.8
Wind Variable Wind from NW

Today
High -- | Low -- °F
--% Chance of Precip.
Yesterday
High -- | Low -- °F
Precip. -- in
6:24 AM 5:52 PM
Full, 100% visible
Pressure 30.55 in
Visibility 10.0 miles
Clouds Clear
Windchill -2 °F
Dew Point 2 °F
Humidity 72%
Rainfall in
Snow Depth Not available.
UV 1 out of 12
Pollen .50 out of 12
Air Quality Not available.
Flu Activity Not available.
METAR KBMI 051356Z 33009KT 10SM CLR M13/M18 A3046 RMK AO2 T11331183 SLP345

More Conditions Fewer Conditions

Pressure 30.55 in
Visibility 10.0 miles
Clouds Clear
Windchill -2 °F
Dew Point 2 °F
Humidity 72%
Rainfall in
Snow Depth Not available.
UV 1 out of 12
Pollen .50 out of 12
Air Quality Not available.
Flu Activity Not available.
METAR KBMI 051356Z 33009KT 10SM CLR M13/M18 A3046 RMK AO2 T11331183 SLP345

More Conditions Fewer Conditions

10-Day Weather Forecast

Almanac

Astronomy

Mar. 05, 2015 Rise Set
Actual Time
Civil Twilight
Nautical Twilight
Astronomical Twilight
Moon
Length of Visible Light
Length of Day
Tomorrow will be .
, % of the Moon is Illuminated

Today's Extremes

State Highs State Lows

Community

WunderPhotos

Upload Photos

1,802,782 photos uploaded!

WunderBlogs® & News

Nearby

Air Quality

  Air Quality AQ Index Pollutant
Not available.

Snow Depth

Station Depth Elevation

Earthquake Activity

City Distance Mag. Time & Date
Minimum magnitude displayed is 2.5.

Coastal Water Temperatures

Place Temperature

Nearby Weather Stations